Time;durP1;ratioP1;P1;durP2;ratioP2;P2;SDS_P1;SDS_P2;PMS_P1;PMS_P2;Temp;Humidity;BMP_temperature;BMP_pressure;BME280_temperature;BME280_humidity;BME280_pressure;Samples;Min_cycle;Max_cycle;Signal;HPM_P1;HPM_P2
2021/11/06 00:00:29;;;;;;;23.58;1.20;;;11.50;90.30;;;;;;5030340;28;20037;-80
2021/11/06 00:02:54;;;;;;;2.13;0.88;;;11.50;90.30;;;;;;5015157;28;20488;-80
2021/11/06 00:05:20;;;;;;;2.38;0.73;;;11.50;90.30;;;;;;5023623;28;20059;-80
2021/11/06 00:07:46;;;;;;;3.95;0.90;;;11.50;90.30;;;;;;5027997;28;20038;-79
2021/11/06 00:10:12;;;;;;;1.95;0.85;;;11.40;90.40;;;;;;5038365;28;20125;-79
2021/11/06 00:12:38;;;;;;;4.35;0.75;;;11.40;90.40;;;;;;5012828;28;20037;-79
2021/11/06 00:15:06;;;;;;;0.55;0.50;;;11.40;90.40;;;;;;5027704;28;20033;-79
2021/11/06 00:17:32;;;;;;;2.05;1.08;;;11.40;90.50;;;;;;5021626;28;20053;-79
2021/11/06 00:19:58;;;;;;;1.20;0.65;;;11.40;90.50;;;;;;5027009;28;20489;-80
2021/11/06 00:22:24;;;;;;;4.15;1.10;;;11.40;90.50;;;;;;5030781;28;20061;-79
2021/11/06 00:24:49;;;;;;;5.20;1.30;;;11.40;90.80;;;;;;5031079;28;20038;-79
2021/11/06 00:27:15;;;;;;;6.95;1.40;;;11.40;90.60;;;;;;5030584;28;20025;-80
2021/11/06 00:29:41;;;;;;;2.03;1.20;;;11.40;90.60;;;;;;5031006;28;20489;-80
2021/11/06 00:32:07;;;;;;;0.60;0.60;;;11.40;90.70;;;;;;5018646;28;20029;-80
2021/11/06 00:34:33;;;;;;;3.33;1.05;;;11.40;90.70;;;;;;5023450;28;20060;-79
2021/11/06 00:36:58;;;;;;;0.98;0.80;;;11.40;90.70;;;;;;5027100;28;20033;-80
2021/11/06 00:39:24;;;;;;;1.25;0.85;;;11.40;90.70;;;;;;5021567;28;20040;-79
2021/11/06 00:41:50;;;;;;;6.82;1.67;;;11.40;90.70;;;;;;5030637;28;20033;-80
2021/11/06 00:44:16;;;;;;;0.57;0.57;;;11.40;90.70;;;;;;5029196;28;20069;-80
2021/11/06 00:46:42;;;;;;;2.67;0.73;;;11.40;90.70;;;;;;5031248;28;20103;-80
2021/11/06 00:49:07;;;;;;;0.65;0.60;;;11.40;90.70;;;;;;5030124;28;20122;-80
2021/11/06 00:51:33;;;;;;;3.80;0.90;;;11.40;90.80;;;;;;5031531;28;20069;-80
2021/11/06 00:53:59;;;;;;;0.57;0.57;;;11.40;90.80;;;;;;5014521;28;20041;-79
2021/11/06 00:56:27;;;;;;;1.35;0.77;;;11.40;90.80;;;;;;5022008;28;20104;-80
2021/11/06 00:58:53;;;;;;;9.68;1.20;;;11.40;90.80;;;;;;5028291;28;20481;-80
2021/11/06 01:01:19;;;;;;;1.77;0.77;;;11.40;90.90;;;;;;5020207;28;20083;-80
2021/11/06 01:03:44;;;;;;;2.35;1.27;;;11.30;90.90;;;;;;5018670;28;20046;-80
2021/11/06 01:06:10;;;;;;;3.05;0.82;;;11.40;91.00;;;;;;5012693;28;20497;-79
2021/11/06 01:08:36;;;;;;;1.25;0.95;;;11.30;91.00;;;;;;5028891;28;20037;-80
2021/11/06 01:11:02;;;;;;;0.85;0.40;;;11.30;91.00;;;;;;5038191;28;20037;-80
2021/11/06 01:13:28;;;;;;;1.23;0.65;;;11.40;91.10;;;;;;5026711;28;20029;-80
2021/11/06 01:15:54;;;;;;;0.73;0.68;;;11.40;91.10;;;;;;5027365;28;20392;-81
2021/11/06 01:18:19;;;;;;;2.70;0.85;;;11.40;91.10;;;;;;5032494;28;20026;-80
2021/11/06 01:20:45;;;;;;;1.73;1.08;;;11.40;91.10;;;;;;5025421;28;20036;-81
2021/11/06 01:23:11;;;;;;;0.50;0.45;;;11.40;91.20;;;;;;5028096;28;20076;-80
2021/11/06 01:25:38;;;;;;;2.80;1.05;;;11.40;91.20;;;;;;5028306;28;20109;-81
2021/11/06 01:28:04;;;;;;;2.10;1.13;;;11.30;91.20;;;;;;5027895;28;20190;-80
2021/11/06 01:30:29;;;;;;;3.33;1.83;;;11.40;91.20;;;;;;5019956;28;20033;-80
2021/11/06 01:32:55;;;;;;;8.27;1.30;;;11.40;91.20;;;;;;5032233;28;20036;-80
2021/11/06 01:35:21;;;;;;;1.60;1.00;;;11.40;91.30;;;;;;5032650;28;20083;-80
2021/11/06 01:37:46;;;;;;;0.55;0.47;;;11.40;91.40;;;;;;5033660;28;20033;-79
2021/11/06 01:40:14;;;;;;;1.15;0.98;;;11.40;91.40;;;;;;5032479;28;20113;-80
2021/11/06 01:42:41;;;;;;;3.58;1.35;;;11.40;91.40;;;;;;5021459;28;20025;-81
2021/11/06 01:45:08;;;;;;;3.83;0.95;;;11.40;91.40;;;;;;5034059;28;20049;-81
2021/11/06 01:47:34;;;;;;;3.75;1.10;;;11.40;91.40;;;;;;5032504;28;20026;-81
2021/11/06 01:50:00;;;;;;;1.05;0.93;;;11.40;91.40;;;;;;5032218;28;20132;-80
2021/11/06 01:52:26;;;;;;;1.05;0.90;;;11.50;91.50;;;;;;5032876;28;20492;-81
2021/11/06 01:54:55;;;;;;;1.10;0.90;;;11.50;91.50;;;;;;5025578;28;20037;-80
2021/11/06 01:57:21;;;;;;;2.60;1.25;;;11.40;91.50;;;;;;5027846;28;20033;-80
2021/11/06 01:59:47;;;;;;;5.75;1.55;;;11.40;91.50;;;;;;5021929;28;20021;-81
2021/11/06 02:02:14;;;;;;;2.75;1.17;;;11.40;91.60;;;;;;5033883;28;20115;-80
2021/11/06 02:04:40;;;;;;;1.63;1.27;;;11.40;91.70;;;;;;5015639;28;20049;-81
2021/11/06 02:07:06;;;;;;;4.35;1.67;;;11.40;91.70;;;;;;5026640;28;20044;-82
2021/11/06 02:09:31;;;;;;;1.27;1.08;;;11.40;91.80;;;;;;5041541;28;20045;-80
2021/11/06 02:11:58;;;;;;;8.32;1.40;;;11.40;91.90;;;;;;5015690;28;20026;-80
2021/11/06 02:14:24;;;;;;;1.42;1.27;;;11.40;92.00;;;;;;5017113;28;20057;-80
2021/11/06 02:16:52;;;;;;;2.83;1.42;;;11.40;92.00;;;;;;5032860;28;20024;-80
2021/11/06 02:19:18;;;;;;;2.72;1.27;;;11.50;92.00;;;;;;5034563;28;20045;-80
2021/11/06 02:21:46;;;;;;;1.88;1.05;;;11.40;92.00;;;;;;5027187;28;20470;-80
2021/11/06 02:24:12;;;;;;;1.33;1.15;;;11.50;92.00;;;;;;5029021;28;20079;-80
2021/11/06 02:26:38;;;;;;;1.45;1.17;;;11.50;92.00;;;;;;5020477;28;21516;-80
2021/11/06 02:29:04;;;;;;;7.75;1.73;;;11.50;92.10;;;;;;5033795;28;20155;-80
2021/11/06 02:31:30;;;;;;;3.00;1.40;;;11.60;92.10;;;;;;5030112;28;20036;-80
2021/11/06 02:33:56;;;;;;;2.97;1.38;;;11.50;92.10;;;;;;5022386;28;20033;-81
2021/11/06 02:36:22;;;;;;;1.83;1.17;;;11.50;92.10;;;;;;5030898;28;20025;-80
2021/11/06 02:38:48;;;;;;;3.85;1.95;;;11.50;92.10;;;;;;5029822;28;20546;-80
2021/11/06 02:41:14;;;;;;;3.10;1.60;;;11.60;92.10;;;;;;5032271;28;20029;-81
2021/11/06 02:43:39;;;;;;;1.75;0.85;;;11.60;92.00;;;;;;5031600;28;20501;-80
2021/11/06 02:46:05;;;;;;;2.13;1.25;;;11.60;92.00;;;;;;5032591;28;20030;-80
2021/11/06 02:48:31;;;;;;;4.72;1.48;;;11.60;92.00;;;;;;5030481;28;20044;-80
2021/11/06 02:50:56;;;;;;;2.00;1.58;;;11.60;92.00;;;;;;5032368;28;20025;-80
2021/11/06 02:53:22;;;;;;;1.92;1.20;;;11.60;92.00;;;;;;5022156;28;20037;-80
2021/11/06 02:55:49;;;;;;;4.97;1.67;;;11.70;92.00;;;;;;5029917;28;20029;-81
2021/11/06 02:58:15;;;;;;;2.35;1.33;;;11.60;92.00;;;;;;5032582;28;20026;-81
2021/11/06 03:00:41;;;;;;;6.03;1.77;;;11.70;92.00;;;;;;5031740;28;20033;-80
2021/11/06 03:03:07;;;;;;;1.85;1.35;;;11.60;92.00;;;;;;5025780;28;20030;-80
2021/11/06 03:05:33;;;;;;;6.53;1.70;;;11.60;92.00;;;;;;5015425;28;20041;-81
2021/11/06 03:07:59;;;;;;;6.60;1.90;;;11.60;92.00;;;;;;5016709;28;20109;-81
2021/11/06 03:10:26;;;;;;;1.75;0.90;;;11.60;92.00;;;;;;5040211;28;20508;-81
2021/11/06 03:12:52;;;;;;;9.38;1.50;;;11.60;92.00;;;;;;5030118;28;20021;-80
2021/11/06 03:15:18;;;;;;;1.00;0.82;;;11.60;92.00;;;;;;5032904;28;20144;-80
2021/11/06 03:17:44;;;;;;;2.22;1.05;;;11.70;92.00;;;;;;5029774;28;20036;-81
2021/11/06 03:20:11;;;;;;;3.78;1.80;;;11.60;92.00;;;;;;5028913;28;20116;-82
2021/11/06 03:22:37;;;;;;;3.13;1.55;;;11.70;92.00;;;;;;5032828;28;20017;-81
2021/11/06 03:25:05;;;;;;;8.63;2.72;;;11.70;92.00;;;;;;5031539;28;20036;-81
2021/11/06 03:27:34;;;;;;;4.07;1.70;;;11.60;92.00;;;;;;5017354;28;20109;-81
2021/11/06 03:30:00;;;;;;;2.72;1.75;;;11.70;92.10;;;;;;5031129;28;20124;-81
2021/11/06 03:32:29;;;;;;;1.80;1.27;;;11.60;92.10;;;;;;5021017;28;20040;-81
2021/11/06 03:34:54;;;;;;;1.85;1.35;;;11.60;92.10;;;;;;5016381;28;20079;-81
2021/11/06 03:37:20;;;;;;;4.20;2.00;;;11.60;92.10;;;;;;5032233;28;20033;-80
2021/11/06 03:39:46;;;;;;;11.85;4.03;;;11.60;92.10;;;;;;5015849;28;20121;-81
2021/11/06 03:42:11;;;;;;;3.05;1.83;;;11.60;92.20;;;;;;5013910;28;20036;-81
2021/11/06 03:44:38;;;;;;;8.48;2.50;;;11.60;92.20;;;;;;5013825;28;20030;-81
2021/11/06 03:47:04;;;;;;;19.08;3.28;;;11.60;92.20;;;;;;5018117;28;20025;-80
2021/11/06 03:49:29;;;;;;;4.72;2.40;;;11.60;92.20;;;;;;5021160;28;20049;-80
2021/11/06 03:51:55;;;;;;;3.42;2.13;;;11.60;92.20;;;;;;5014631;28;20022;-80
2021/11/06 03:54:21;;;;;;;7.93;2.78;;;11.60;92.20;;;;;;5031479;28;20033;-80
2021/11/06 03:56:46;;;;;;;5.22;2.70;;;11.60;92.20;;;;;;5030048;28;20033;-80
2021/11/06 03:59:12;;;;;;;7.68;1.58;;;11.60;92.20;;;;;;5025646;28;20112;-80
2021/11/06 04:01:38;;;;;;;3.63;2.28;;;11.70;92.20;;;;;;5012890;28;20040;-81
2021/11/06 04:04:04;;;;;;;9.40;2.67;;;11.70;92.30;;;;;;5013890;28;20042;-80
2021/11/06 04:06:31;;;;;;;4.93;2.50;;;11.60;92.30;;;;;;5023691;28;20037;-82
2021/11/06 04:08:56;;;;;;;5.63;2.60;;;11.60;92.30;;;;;;5036485;28;20051;-80
2021/11/06 04:11:23;;;;;;;8.35;2.00;;;11.60;92.30;;;;;;5024625;28;20120;-81
2021/11/06 04:13:49;;;;;;;6.38;2.67;;;11.60;92.30;;;;;;5025619;28;20037;-80
2021/11/06 04:16:16;;;;;;;3.75;2.35;;;11.60;92.30;;;;;;5029575;28;20037;-80
2021/11/06 04:18:42;;;;;;;3.97;1.80;;;11.60;92.30;;;;;;5031110;28;20393;-81
2021/11/06 04:21:08;;;;;;;3.28;2.13;;;11.60;92.30;;;;;;5029052;28;20104;-81
2021/11/06 04:23:34;;;;;;;2.90;1.77;;;11.70;92.30;;;;;;5031275;28;20033;-80
2021/11/06 04:25:59;;;;;;;5.10;2.60;;;11.70;92.30;;;;;;5020454;28;20496;-80
2021/11/06 04:28:25;;;;;;;6.05;2.45;;;11.70;92.30;;;;;;5022415;28;20030;-80
2021/11/06 04:30:51;;;;;;;7.05;3.00;;;11.70;92.30;;;;;;5018834;28;20037;-80
2021/11/06 04:33:17;;;;;;;3.05;1.63;;;11.70;92.30;;;;;;5022513;28;20022;-80
2021/11/06 04:35:42;;;;;;;7.25;2.33;;;11.70;92.30;;;;;;5017039;28;20342;-82
2021/11/06 04:38:08;;;;;;;3.72;2.42;;;11.70;92.40;;;;;;5018050;28;20104;-81
2021/11/06 04:40:34;;;;;;;8.98;3.00;;;11.70;92.40;;;;;;5022491;28;20500;-81
2021/11/06 04:43:00;;;;;;;2.30;1.35;;;11.70;92.40;;;;;;5021670;28;20049;-80
2021/11/06 04:45:26;;;;;;;5.30;2.10;;;11.70;92.40;;;;;;5024930;28;20433;-81
2021/11/06 04:47:51;;;;;;;5.47;3.30;;;11.80;92.40;;;;;;5026453;28;20032;-81
2021/11/06 04:50:17;;;;;;;6.95;2.17;;;11.70;92.40;;;;;;5029377;28;20071;-80
2021/11/06 04:52:43;;;;;;;2.47;1.95;;;11.70;92.50;;;;;;5025921;28;20030;-80
2021/11/06 04:55:12;;;;;;;6.15;1.92;;;11.70;92.50;;;;;;5033431;28;20037;-81
2021/11/06 04:57:38;;;;;;;3.60;2.15;;;11.70;92.50;;;;;;5025865;28;20036;-81
2021/11/06 05:00:07;;;;;;;2.30;1.67;;;11.70;92.50;;;;;;5023860;28;20532;-80
2021/11/06 05:02:32;;;;;;;4.75;2.85;;;11.70;92.50;;;;;;5029949;28;20077;-80
2021/11/06 05:04:58;;;;;;;5.55;2.63;;;11.70;92.80;;;;;;5027267;28;20062;-81
2021/11/06 05:07:24;;;;;;;7.85;3.45;;;11.70;92.90;;;;;;5029673;28;20388;-80
2021/11/06 05:09:50;;;;;;;7.47;3.08;;;11.70;92.70;;;;;;5034811;28;20076;-80
2021/11/06 05:12:20;;;;;;;4.15;2.67;;;11.60;92.70;;;;;;5030250;28;20021;-80
2021/11/06 05:14:49;;;;;;;7.40;3.58;;;11.60;92.80;;;;;;5026688;28;20033;-80
2021/11/06 05:17:17;;;;;;;14.15;3.42;;;11.70;92.80;;;;;;5029390;28;20052;-80
2021/11/06 05:19:43;;;;;;;10.00;1.85;;;11.70;92.80;;;;;;5022434;28;20037;-81
2021/11/06 05:22:09;;;;;;;7.63;2.80;;;11.60;92.80;;;;;;5028565;28;20037;-80
2021/11/06 05:24:36;;;;;;;5.65;2.70;;;11.60;92.80;;;;;;5032277;28;20040;-79
2021/11/06 05:27:02;;;;;;;4.68;2.78;;;11.70;92.90;;;;;;5022192;28;20029;-81
2021/11/06 05:29:28;;;;;;;4.28;2.33;;;11.60;92.90;;;;;;5034158;28;20071;-80
2021/11/06 05:31:53;;;;;;;7.90;3.47;;;11.60;93.20;;;;;;5028539;28;20122;-81
2021/11/06 05:34:19;;;;;;;5.00;2.33;;;11.70;93.00;;;;;;5025709;28;20176;-81
2021/11/06 05:36:45;;;;;;;17.23;4.57;;;11.70;93.00;;;;;;5027200;28;20045;-81
2021/11/06 05:39:10;;;;;;;6.47;2.47;;;11.70;93.00;;;;;;5032673;28;20553;-81
2021/11/06 05:41:36;;;;;;;4.25;2.03;;;11.70;93.00;;;;;;5033562;28;20025;-81
2021/11/06 05:44:02;;;;;;;8.18;3.63;;;11.70;93.00;;;;;;5020880;28;20370;-81
2021/11/06 05:46:28;;;;;;;1.77;1.52;;;11.70;93.00;;;;;;5027274;28;20061;-80
2021/11/06 05:48:53;;;;;;;14.73;5.65;;;11.70;93.00;;;;;;5029472;28;20511;-80
2021/11/06 05:51:19;;;;;;;8.07;3.60;;;11.70;93.00;;;;;;5027188;28;20034;-81
2021/11/06 05:53:45;;;;;;;10.93;4.22;;;11.80;93.00;;;;;;5024976;28;20036;-80
2021/11/06 05:56:11;;;;;;;9.45;4.05;;;11.80;93.00;;;;;;5033149;28;20060;-81
2021/11/06 05:58:36;;;;;;;7.90;3.55;;;11.80;93.00;;;;;;5025746;28;20037;-80
2021/11/06 06:01:02;;;;;;;13.00;4.40;;;11.80;93.40;;;;;;5029902;28;20461;-81
2021/11/06 06:03:28;;;;;;;10.18;4.15;;;11.80;93.10;;;;;;5026416;28;20042;-80
2021/11/06 06:05:53;;;;;;;12.32;3.75;;;11.70;93.10;;;;;;5026114;28;20118;-80
2021/11/06 06:08:19;;;;;;;7.32;4.63;;;11.80;93.20;;;;;;5032340;28;20029;-81
2021/11/06 06:10:44;;;;;;;7.45;3.80;;;11.70;93.20;;;;;;5028554;28;20060;-81
2021/11/06 06:13:10;;;;;;;5.90;2.53;;;11.80;93.20;;;;;;5026379;28;20033;-82
2021/11/06 06:15:37;;;;;;;9.52;5.07;;;11.70;93.20;;;;;;5028002;28;20056;-81
2021/11/06 06:18:02;;;;;;;5.88;2.50;;;11.80;93.30;;;;;;5032248;28;20040;-81
2021/11/06 06:20:28;;;;;;;9.52;4.50;;;11.70;93.30;;;;;;5024344;28;20112;-82
2021/11/06 06:22:54;;;;;;;14.60;6.78;;;11.80;93.40;;;;;;5026565;28;20021;-81
2021/11/06 06:25:19;;;;;;;7.07;4.07;;;11.70;93.40;;;;;;5031815;28;20060;-81
2021/11/06 06:27:45;;;;;;;8.73;3.83;;;11.70;93.40;;;;;;5029869;28;20029;-81
2021/11/06 06:30:14;;;;;;;10.60;4.88;;;11.70;93.50;;;;;;5033026;28;20112;-81
2021/11/06 06:32:40;;;;;;;11.43;5.38;;;11.70;93.80;;;;;;5032258;28;21219;-81
2021/11/06 06:35:07;;;;;;;4.78;2.67;;;11.70;93.50;;;;;;5024469;28;20485;-81
2021/11/06 06:37:32;;;;;;;6.90;4.10;;;11.70;93.60;;;;;;5022048;28;20029;-81
2021/11/06 06:39:58;;;;;;;3.85;2.22;;;11.70;93.50;;;;;;5023531;28;20033;-81
2021/11/06 06:42:24;;;;;;;7.50;4.07;;;11.70;93.50;;;;;;5029670;28;20045;-81
2021/11/06 06:44:51;;;;;;;7.97;4.60;;;11.70;93.50;;;;;;5021305;28;20367;-81
2021/11/06 06:47:17;;;;;;;13.48;5.90;;;11.70;93.50;;;;;;5025842;28;20018;-80
2021/11/06 06:49:45;;;;;;;9.55;4.93;;;11.70;93.50;;;;;;5027362;28;20553;-81
2021/11/06 06:52:13;;;;;;;9.68;3.55;;;11.70;93.50;;;;;;5025631;28;20125;-81
2021/11/06 06:54:39;;;;;;;10.93;5.85;;;11.70;93.50;;;;;;5020971;28;20091;-81
2021/11/06 06:57:05;;;;;;;7.60;4.20;;;11.70;93.80;;;;;;5031600;28;20167;-81
2021/11/06 06:59:33;;;;;;;7.00;4.22;;;11.70;93.50;;;;;;5032878;28;20470;-80
2021/11/06 07:02:03;;;;;;;11.43;4.88;;;11.70;93.50;;;;;;5031649;28;21632;-81
2021/11/06 07:04:29;;;;;;;4.45;2.33;;;11.70;93.50;;;;;;5027804;28;20060;-82
2021/11/06 07:06:56;;;;;;;8.65;5.13;;;11.70;93.50;;;;;;5031186;28;20033;-82
2021/11/06 07:09:22;;;;;;;5.63;3.47;;;11.70;93.60;;;;;;5037723;28;20389;-80
2021/11/06 07:11:48;;;;;;;17.00;6.35;;;11.70;93.60;;;;;;5029809;28;20502;-83
2021/11/06 07:14:19;;;;;;;10.73;4.93;;;11.70;93.60;;;;;;5032125;28;20393;-83
2021/11/06 07:16:45;;;;;;;8.45;5.30;;;11.70;93.70;;;;;;5024335;28;20477;-81
2021/11/06 07:19:12;;;;;;;10.68;5.00;;;11.70;93.60;;;;;;5018503;28;20463;-78
2021/11/06 07:21:38;;;;;;;5.20;2.67;;;11.70;93.70;;;;;;5016054;28;20026;-91
2021/11/06 07:24:06;;;;;;;8.57;4.38;;;11.70;93.60;;;;;;5025914;28;20108;-93
2021/11/06 07:26:33;;;;;;;8.93;3.90;;;11.70;93.60;;;;;;5027248;28;20025;-89
2021/11/06 07:28:59;;;;;;;11.48;5.60;;;11.70;93.60;;;;;;5026494;28;20507;-87
2021/11/06 07:31:25;;;;;;;10.18;5.70;;;11.70;93.60;;;;;;5026953;28;20112;-88
2021/11/06 07:33:54;;;;;;;8.05;4.00;;;11.70;93.60;;;;;;5026826;28;20032;-90
2021/11/06 07:36:20;;;;;;;14.80;8.07;;;11.70;93.60;;;;;;5024540;28;20425;-86
2021/11/06 07:38:45;;;;;;;7.68;4.32;;;11.70;93.70;;;;;;5028688;28;20029;-89
2021/11/06 07:41:12;;;;;;;11.32;5.60;;;11.70;93.70;;;;;;5032095;28;20060;-85
2021/11/06 07:43:38;;;;;;;8.52;5.00;;;11.80;93.70;;;;;;5028445;28;20030;-88
2021/11/06 07:46:07;;;;;;;6.18;3.92;;;11.80;93.60;;;;;;5029836;28;20116;-90
2021/11/06 07:48:36;;;;;;;2.47;2.03;;;11.80;93.60;;;;;;5028900;28;20091;-83
2021/11/06 07:51:03;;;;;;;6.05;3.58;;;11.80;93.60;;;;;;5034437;28;20037;-90
2021/11/06 07:53:29;;;;;;;15.80;6.95;;;11.80;93.60;;;;;;5025112;28;20033;-89
2021/11/06 07:55:55;;;;;;;11.02;6.03;;;11.80;93.70;;;;;;5028133;28;20040;-72
2021/11/06 07:58:21;;;;;;;12.85;4.45;;;11.80;93.90;;;;;;5027289;28;20042;-75
2021/11/06 08:00:46;;;;;;;4.70;3.72;;;11.80;93.70;;;;;;5026882;28;20033;-87
2021/11/06 08:03:12;;;;;;;8.80;3.83;;;11.80;93.70;;;;;;5030498;28;20033;-88
2021/11/06 08:05:38;;;;;;;13.15;4.53;;;11.90;93.80;;;;;;5022279;28;20102;-87
2021/11/06 08:08:04;;;;;;;16.05;5.32;;;11.80;93.80;;;;;;5033880;28;20033;-86
2021/11/06 08:10:30;;;;;;;10.55;3.58;;;11.80;93.80;;;;;;5033034;28;20068;-86
2021/11/06 08:13:01;;;;;;;11.55;6.22;;;11.80;93.80;;;;;;5030034;28;20031;-85
2021/11/06 08:15:27;;;;;;;10.13;4.38;;;11.90;93.90;;;;;;5027278;28;20060;-88
2021/11/06 08:17:53;;;;;;;16.63;7.30;;;11.90;93.90;;;;;;5031952;28;20239;-87
2021/11/06 08:20:22;;;;;;;9.63;5.88;;;11.90;93.90;;;;;;5028766;28;20108;-87
2021/11/06 08:22:48;;;;;;;8.73;4.07;;;11.90;93.90;;;;;;5024656;28;20037;-88
2021/11/06 08:25:17;;;;;;;7.95;3.08;;;11.90;93.90;;;;;;5020099;28;20037;-87
2021/11/06 08:27:49;;;;;;;9.80;5.20;;;11.90;93.90;;;;;;5023142;28;20042;-89
2021/11/06 08:30:16;;;;;;;12.85;6.05;;;11.90;94.00;;;;;;5028291;28;20045;-87
2021/11/06 08:32:43;;;;;;;8.43;4.30;;;11.90;93.90;;;;;;5028585;28;20025;-87
2021/11/06 08:35:09;;;;;;;10.63;4.88;;;12.00;94.00;;;;;;5031535;28;20029;-83
2021/11/06 08:37:36;;;;;;;12.18;5.35;;;11.90;94.00;;;;;;5026803;28;20037;-89
2021/11/06 08:40:03;;;;;;;15.27;5.53;;;12.00;94.00;;;;;;5034030;28;20112;-91
2021/11/06 08:42:28;;;;;;;4.88;2.85;;;12.00;94.00;;;;;;5029673;28;20022;-92
2021/11/06 08:44:55;;;;;;;12.18;6.72;;;12.00;94.10;;;;;;5036538;28;20116;-93
2021/11/06 08:47:21;;;;;;;11.23;5.72;;;12.00;94.10;;;;;;5032599;28;20030;-89
2021/11/06 08:49:47;;;;;;;11.45;4.85;;;12.00;94.10;;;;;;5030237;28;20046;-91
2021/11/06 08:52:18;;;;;;;9.70;5.28;;;12.00;94.10;;;;;;5030269;28;20063;-90
2021/11/06 08:54:44;;;;;;;9.27;4.70;;;12.00;94.10;;;;;;5032132;28;20037;-91
2021/11/06 08:57:09;;;;;;;12.30;6.10;;;12.00;94.10;;;;;;5030688;28;20032;-90
2021/11/06 08:59:35;;;;;;;8.63;4.93;;;12.00;94.20;;;;;;5031346;28;20117;-88
2021/11/06 09:02:01;;;;;;;11.25;6.32;;;12.00;94.20;;;;;;5028975;28;20026;-85
2021/11/06 09:04:27;;;;;;;10.52;5.50;;;12.10;94.20;;;;;;5026812;28;20053;-76
2021/11/06 09:06:53;;;;;;;15.18;6.15;;;12.10;94.30;;;;;;5028082;28;20116;-88
2021/11/06 09:09:19;;;;;;;12.68;5.57;;;12.10;94.30;;;;;;5034220;28;20041;-85
2021/11/06 09:11:47;;;;;;;6.53;4.10;;;12.10;94.30;;;;;;5029165;28;20049;-84
2021/11/06 09:14:14;;;;;;;13.25;5.90;;;12.10;94.30;;;;;;5033701;28;20087;-83
2021/11/06 09:16:40;;;;;;;11.68;4.50;;;12.10;94.30;;;;;;5031953;28;20491;-70
2021/11/06 09:19:07;;;;;;;11.80;5.60;;;12.10;94.30;;;;;;5032422;28;20117;-76
2021/11/06 09:21:33;;;;;;;15.73;7.10;;;12.20;94.30;;;;;;5022057;28;20508;-79
2021/11/06 09:24:05;;;;;;;16.38;6.85;;;12.10;94.30;;;;;;5025892;28;20030;-78
2021/11/06 09:26:33;;;;;;;7.95;4.10;;;12.20;94.30;;;;;;5024973;28;20125;-82
2021/11/06 09:28:59;;;;;;;12.75;5.43;;;12.20;94.30;;;;;;5025569;28;20048;-82
2021/11/06 09:31:25;;;;;;;15.13;6.45;;;12.20;94.30;;;;;;5025340;28;20373;-86
2021/11/06 09:33:50;;;;;;;12.68;5.43;;;12.20;94.40;;;;;;5027489;28;20060;-83
2021/11/06 09:36:16;;;;;;;7.88;4.72;;;12.20;94.40;;;;;;5028983;28;20037;-85
2021/11/06 09:38:42;;;;;;;11.40;5.90;;;12.20;94.40;;;;;;5030550;28;20483;-83
2021/11/06 09:41:09;;;;;;;14.02;6.85;;;12.30;94.40;;;;;;5031210;28;20072;-84
2021/11/06 09:43:36;;;;;;;11.77;5.25;;;12.20;94.40;;;;;;5029101;28;20431;-82
2021/11/06 09:46:03;;;;;;;10.48;4.85;;;12.30;94.40;;;;;;5025706;28;20026;-83
2021/11/06 09:48:30;;;;;;;13.05;6.80;;;12.30;94.40;;;;;;5028384;28;20073;-85
2021/11/06 09:50:57;;;;;;;11.30;4.15;;;12.30;94.40;;;;;;5028345;28;20044;-82
2021/11/06 09:53:39;;;;;;;9.85;4.97;;;12.30;94.40;;;;;;5026489;28;20044;-82
2021/11/06 09:56:07;;;;;;;10.98;5.32;;;12.30;94.40;;;;;;5030809;28;20409;-78
2021/11/06 09:58:33;;;;;;;9.38;5.43;;;12.30;94.40;;;;;;5030578;28;20045;-83
2021/11/06 10:00:59;;;;;;;23.83;5.85;;;12.40;94.40;;;;;;5028887;28;20033;-80
2021/11/06 10:03:25;;;;;;;9.93;5.65;;;12.40;94.40;;;;;;5025358;28;20167;-80
2021/11/06 10:05:51;;;;;;;23.95;5.70;;;12.40;94.40;;;;;;5028226;28;20529;-84
2021/11/06 10:08:39;;;;;;;13.77;5.55;;;12.30;94.40;;;;;;5028760;28;20120;-83
2021/11/06 10:11:11;;;;;;;5.90;3.70;;;12.40;94.50;;;;;;5029227;28;20037;-82
2021/11/06 10:13:55;;;;;;;13.10;4.85;;;12.40;94.40;;;;;;5031052;28;20140;-82
2021/11/06 10:16:47;;;;;;;10.02;4.95;;;12.50;94.40;;;;;;5030370;28;20105;-83
2021/11/06 10:19:18;;;;;;;14.98;6.00;;;12.50;94.40;;;;;;5032515;28;20060;-89
2021/11/06 10:21:50;;;;;;;14.77;6.05;;;12.40;94.40;;;;;;5032265;28;20045;-85
2021/11/06 10:24:36;;;;;;;10.65;6.53;;;12.40;94.40;;;;;;5031868;28;20037;-83
2021/11/06 10:27:19;;;;;;;13.13;6.38;;;12.50;94.40;;;;;;5029993;28;20105;-84
2021/11/06 10:30:13;;;;;;;11.75;5.05;;;12.50;94.40;;;;;;5029081;28;20034;-84
2021/11/06 10:32:56;;;;;;;12.30;5.15;;;12.50;94.40;;;;;;5029814;28;20029;-85
2021/11/06 10:35:24;;;;;;;5.35;2.55;;;12.50;94.40;;;;;;5028380;28;20034;-85
2021/11/06 10:38:01;;;;;;;14.27;5.03;;;12.50;94.40;;;;;;5030132;28;20083;-85
2021/11/06 10:40:31;;;;;;;16.35;5.93;;;12.50;94.30;;;;;;5026770;28;20500;-87
2021/11/06 10:43:00;;;;;;;7.90;4.63;;;12.50;94.30;;;;;;5023935;28;20065;-85
2021/11/06 10:45:29;;;;;;;10.65;5.88;;;12.60;94.30;;;;;;5031762;28;20029;-86
2021/11/06 10:47:56;;;;;;;8.18;4.38;;;12.50;94.30;;;;;;5029508;28;20033;-85
2021/11/06 10:50:35;;;;;;;5.85;3.55;;;12.60;94.30;;;;;;5028837;28;20034;-84
2021/11/06 10:53:01;;;;;;;6.80;3.80;;;12.50;94.30;;;;;;5033433;28;20112;-84
2021/11/06 10:55:36;;;;;;;20.15;5.13;;;12.60;94.30;;;;;;5033814;28;20029;-84
2021/11/06 10:58:23;;;;;;;20.48;5.20;;;12.60;94.30;;;;;;5031794;28;20098;-84
2021/11/06 11:01:10;;;;;;;9.40;4.68;;;12.60;94.30;;;;;;5029496;28;20469;-84
2021/11/06 11:03:38;;;;;;;12.52;4.85;;;12.70;94.30;;;;;;5030912;28;20065;-84
2021/11/06 11:06:15;;;;;;;8.70;3.38;;;12.70;94.30;;;;;;5033464;28;20045;-85
2021/11/06 11:08:44;;;;;;;7.60;3.67;;;12.70;94.30;;;;;;5030456;28;20061;-84
2021/11/06 11:11:10;;;;;;;7.72;3.17;;;12.70;94.30;;;;;;5027659;28;20029;-89
2021/11/06 11:13:52;;;;;;;10.52;4.70;;;12.70;94.30;;;;;;5028121;28;20026;-85
2021/11/06 11:16:20;;;;;;;10.40;3.78;;;12.80;94.30;;;;;;5024567;28;20481;-84
2021/11/06 11:18:50;;;;;;;7.57;3.67;;;12.80;94.30;;;;;;5026246;28;20039;-86
2021/11/06 11:21:30;;;;;;;11.10;4.28;;;12.80;94.30;;;;;;5034697;28;20096;-84
2021/11/06 11:23:59;;;;;;;12.00;3.83;;;12.90;94.30;;;;;;5024669;28;20087;-86
2021/11/06 11:26:31;;;;;;;8.98;4.30;;;12.80;94.20;;;;;;5028396;28;20046;-84
2021/11/06 11:28:58;;;;;;;11.70;4.35;;;12.80;94.20;;;;;;5034936;28;20041;-85
2021/11/06 11:31:25;;;;;;;12.43;5.38;;;12.90;94.30;;;;;;5025556;28;20484;-86
2021/11/06 11:33:51;;;;;;;8.45;4.38;;;12.90;94.20;;;;;;5027985;28;20061;-84
2021/11/06 11:36:19;;;;;;;11.73;5.00;;;12.90;94.20;;;;;;5032790;28;20499;-88
2021/11/06 11:38:45;;;;;;;15.55;5.50;;;12.90;94.20;;;;;;5029861;28;20033;-87
2021/11/06 11:41:26;;;;;;;19.83;5.15;;;13.00;94.20;;;;;;5032583;28;20021;-88
2021/11/06 11:44:26;;;;;;;11.43;4.90;;;13.00;94.10;;;;;;5028717;28;20042;-83
2021/11/06 11:46:57;;;;;;;12.48;5.57;;;13.00;94.10;;;;;;5025443;28;20040;-84
2021/11/06 11:49:33;;;;;;;10.48;4.72;;;13.00;94.10;;;;;;5025265;28;20116;-84
2021/11/06 11:52:26;;;;;;;15.57;7.43;;;13.00;94.10;;;;;;5024723;28;20029;-80
2021/11/06 11:54:57;;;;;;;11.70;5.60;;;13.00;94.10;;;;;;5025466;28;20362;-81
2021/11/06 11:57:23;;;;;;;13.15;5.00;;;13.00;94.10;;;;;;5027471;28;20370;-75
2021/11/06 11:59:49;;;;;;;12.52;5.38;;;13.00;94.00;;;;;;5026298;28;20826;-87
2021/11/06 12:02:29;;;;;;;15.90;6.25;;;13.00;94.00;;;;;;5022838;28;20029;-82
2021/11/06 12:05:17;;;;;;;9.90;4.63;;;13.10;94.10;;;;;;5027006;28;20160;-83
2021/11/06 12:08:07;;;;;;;6.45;4.10;;;13.00;94.00;;;;;;5026298;28;20045;-84
2021/11/06 12:10:35;;;;;;;9.20;5.38;;;13.10;94.00;;;;;;5024811;28;20043;-84
2021/11/06 12:13:23;;;;;;;14.65;4.88;;;13.10;93.90;;;;;;5024517;28;20029;-84
2021/11/06 12:16:06;;;;;;;12.75;6.40;;;13.10;94.00;;;;;;5024152;28;20040;-82
2021/11/06 12:18:35;;;;;;;10.60;5.32;;;13.10;93.90;;;;;;5024600;28;20466;-91
2021/11/06 12:21:16;;;;;;;14.00;4.85;;;13.10;93.90;;;;;;5026829;28;20112;-80
2021/11/06 12:24:10;;;;;;;19.42;5.40;;;13.10;93.90;;;;;;5026842;28;20052;-85
2021/11/06 12:27:00;;;;;;;16.27;5.45;;;13.20;93.90;;;;;;5022977;28;20073;-76
2021/11/06 12:29:29;;;;;;;10.75;5.25;;;13.20;93.80;;;;;;5021751;28;20436;-78
2021/11/06 12:32:07;;;;;;;13.05;5.75;;;13.20;93.70;;;;;;5015471;28;20026;-76
2021/11/06 12:34:33;;;;;;;7.78;3.83;;;13.20;93.70;;;;;;5025958;28;20045;-75
2021/11/06 12:37:00;;;;;;;8.85;3.97;;;13.30;93.70;;;;;;5029792;28;20775;-81
2021/11/06 12:39:49;;;;;;;11.70;6.68;;;13.30;93.70;;;;;;5027611;28;20482;-85
2021/11/06 12:42:33;;;;;;;10.10;3.63;;;13.30;93.60;;;;;;5023736;28;20138;-85
2021/11/06 12:45:03;;;;;;;12.40;4.68;;;13.30;93.60;;;;;;5022404;28;20040;-76
2021/11/06 12:47:35;;;;;;;10.55;4.38;;;13.30;93.60;;;;;;5020721;28;20041;-79